sensor_id;sensor_type;location;lat;lon;timestamp;temperature;humidity
14103;DHT22;7129;48.832;12.472;2022-07-11T00:21:07;14.80;97.30
14103;DHT22;7129;48.832;12.472;2022-07-11T00:26:09;14.60;97.40
14103;DHT22;7129;48.832;12.472;2022-07-11T01:15:19;14.60;98.40
14103;DHT22;7129;48.832;12.472;2022-07-11T01:20:33;14.40;98.60
14103;DHT22;7129;48.832;12.472;2022-07-11T01:26:19;14.50;98.80
14103;DHT22;7129;48.832;12.472;2022-07-11T03:07:57;14.40;99.90
14103;DHT22;7129;48.832;12.472;2022-07-11T03:46:00;14.30;99.90
14103;DHT22;7129;48.832;12.472;2022-07-11T03:51:08;14.30;99.90
14103;DHT22;7129;48.832;12.472;2022-07-11T04:07:29;14.30;99.90
14103;DHT22;7129;48.832;12.472;2022-07-11T04:12:56;14.30;99.90
14103;DHT22;7129;48.832;12.472;2022-07-11T04:23:18;14.30;99.90
14103;DHT22;7129;48.832;12.472;2022-07-11T04:39:04;14.50;99.90
14103;DHT22;7129;48.832;12.472;2022-07-11T04:44:09;14.60;99.90
14103;DHT22;7129;48.832;12.472;2022-07-11T04:54:23;14.50;99.90
14103;DHT22;7129;48.832;12.472;2022-07-11T04:59:25;14.60;99.90
14103;DHT22;7129;48.832;12.472;2022-07-11T05:04:27;14.60;99.90
14103;DHT22;7129;48.832;12.472;2022-07-11T05:09:30;14.70;99.90
14103;DHT22;7129;48.832;12.472;2022-07-11T05:14:32;14.70;99.90
14103;DHT22;7129;48.832;12.472;2022-07-11T05:19:34;14.70;99.90
14103;DHT22;7129;48.832;12.472;2022-07-11T05:24:38;14.80;99.90
14103;DHT22;7129;48.832;12.472;2022-07-11T05:29:39;14.80;99.90
14103;DHT22;7129;48.832;12.472;2022-07-11T05:34:41;14.90;99.90
14103;DHT22;7129;48.832;12.472;2022-07-11T05:39:45;14.90;99.90
14103;DHT22;7129;48.832;12.472;2022-07-11T05:44:47;14.90;99.90
14103;DHT22;7129;48.832;12.472;2022-07-11T05:49:52;14.90;99.90
14103;DHT22;7129;48.832;12.472;2022-07-11T05:54:55;15.00;99.90
14103;DHT22;7129;48.832;12.472;2022-07-11T05:59:57;15.00;99.90
14103;DHT22;7129;48.832;12.472;2022-07-11T06:04:59;15.00;99.90
14103;DHT22;7129;48.832;12.472;2022-07-11T06:10:02;15.00;99.90
14103;DHT22;7129;48.832;12.472;2022-07-11T06:15:05;15.10;99.90
14103;DHT22;7129;48.832;12.472;2022-07-11T06:20:08;15.20;99.90
14103;DHT22;7129;48.832;12.472;2022-07-11T06:25:11;15.20;99.90
14103;DHT22;7129;48.832;12.472;2022-07-11T06:30:13;15.20;99.90
14103;DHT22;7129;48.832;12.472;2022-07-11T06:35:15;15.20;99.90
14103;DHT22;7129;48.832;12.472;2022-07-11T06:40:18;15.20;99.90
14103;DHT22;7129;48.832;12.472;2022-07-11T06:45:20;15.30;99.90
14103;DHT22;7129;48.832;12.472;2022-07-11T06:50:22;15.20;99.90
14103;DHT22;7129;48.832;12.472;2022-07-11T06:55:25;15.20;99.90
14103;DHT22;7129;48.832;12.472;2022-07-11T07:00:27;15.30;99.90
14103;DHT22;7129;48.832;12.472;2022-07-11T07:05:29;15.50;99.90
14103;DHT22;7129;48.832;12.472;2022-07-11T07:10:32;15.70;99.90
14103;DHT22;7129;48.832;12.472;2022-07-11T07:15:34;15.80;99.90
14103;DHT22;7129;48.832;12.472;2022-07-11T07:20:36;15.90;99.90
14103;DHT22;7129;48.832;12.472;2022-07-11T07:25:40;16.00;99.90
14103;DHT22;7129;48.832;12.472;2022-07-11T07:30:46;16.00;99.90
14103;DHT22;7129;48.832;12.472;2022-07-11T07:35:52;16.10;99.90
14103;DHT22;7129;48.832;12.472;2022-07-11T07:41:21;16.20;99.90
14103;DHT22;7129;48.832;12.472;2022-07-11T07:52:24;16.70;99.90
14103;DHT22;7129;48.832;12.472;2022-07-11T07:57:44;16.90;99.90
14103;DHT22;7129;48.832;12.472;2022-07-11T08:08:47;17.10;99.90
14103;DHT22;7129;48.832;12.472;2022-07-11T08:13:51;17.20;99.90
14103;DHT22;7129;48.832;12.472;2022-07-11T08:19:05;17.20;99.90
14103;DHT22;7129;48.832;12.472;2022-07-11T08:24:39;17.30;99.90
14103;DHT22;7129;48.832;12.472;2022-07-11T08:30:20;17.30;99.90
14103;DHT22;7129;48.832;12.472;2022-07-11T08:35:22;17.20;99.90
14103;DHT22;7129;48.832;12.472;2022-07-11T08:40:24;17.20;99.90
14103;DHT22;7129;48.832;12.472;2022-07-11T08:45:42;17.50;99.90
14103;DHT22;7129;48.832;12.472;2022-07-11T08:50:44;17.80;99.90
14103;DHT22;7129;48.832;12.472;2022-07-11T08:55:46;17.80;99.90
14103;DHT22;7129;48.832;12.472;2022-07-11T09:00:49;18.00;99.90
14103;DHT22;7129;48.832;12.472;2022-07-11T09:05:51;18.10;99.90
14103;DHT22;7129;48.832;12.472;2022-07-11T09:10:53;18.10;99.90
14103;DHT22;7129;48.832;12.472;2022-07-11T09:28:03;19.00;99.90
14103;DHT22;7129;48.832;12.472;2022-07-11T09:33:07;19.60;99.90
14103;DHT22;7129;48.832;12.472;2022-07-11T09:44:31;19.60;99.90
14103;DHT22;7129;48.832;12.472;2022-07-11T09:49:35;19.40;99.90
14103;DHT22;7129;48.832;12.472;2022-07-11T09:54:52;19.50;99.90
14103;DHT22;7129;48.832;12.472;2022-07-11T10:00:03;19.30;99.90
14103;DHT22;7129;48.832;12.472;2022-07-11T10:11:22;19.20;99.90
14103;DHT22;7129;48.832;12.472;2022-07-11T10:16:33;19.10;99.90
14103;DHT22;7129;48.832;12.472;2022-07-11T10:21:41;19.20;99.90
14103;DHT22;7129;48.832;12.472;2022-07-11T10:26:51;19.30;99.90
14103;DHT22;7129;48.832;12.472;2022-07-11T10:32:07;19.50;99.90
14103;DHT22;7129;48.832;12.472;2022-07-11T10:37:09;19.70;99.90
14103;DHT22;7129;48.832;12.472;2022-07-11T10:42:39;19.90;99.90
14103;DHT22;7129;48.832;12.472;2022-07-11T10:47:44;19.70;99.90
14103;DHT22;7129;48.832;12.472;2022-07-11T10:59:03;19.70;99.90
14103;DHT22;7129;48.832;12.472;2022-07-11T11:04:48;19.70;99.90
14103;DHT22;7129;48.832;12.472;2022-07-11T11:09:50;19.60;99.90
14103;DHT22;7129;48.832;12.472;2022-07-11T11:15:31;19.60;99.90
14103;DHT22;7129;48.832;12.472;2022-07-11T11:20:34;19.50;99.90
14103;DHT22;7129;48.832;12.472;2022-07-11T11:25:36;19.40;99.90
14103;DHT22;7129;48.832;12.472;2022-07-11T11:30:38;19.30;99.90
14103;DHT22;7129;48.832;12.472;2022-07-11T11:36:00;19.50;99.90
14103;DHT22;7129;48.832;12.472;2022-07-11T11:41:02;19.70;99.90
14103;DHT22;7129;48.832;12.472;2022-07-11T11:46:06;19.90;99.90
14103;DHT22;7129;48.832;12.472;2022-07-11T11:51:26;20.10;99.90
14103;DHT22;7129;48.832;12.472;2022-07-11T11:56:29;20.40;99.90
14103;DHT22;7129;48.832;12.472;2022-07-11T12:01:34;20.50;99.90
14103;DHT22;7129;48.832;12.472;2022-07-11T12:06:38;20.80;99.90
14103;DHT22;7129;48.832;12.472;2022-07-11T12:11:42;21.00;99.90
14103;DHT22;7129;48.832;12.472;2022-07-11T12:16:46;21.20;99.80
14103;DHT22;7129;48.832;12.472;2022-07-11T12:21:51;21.30;99.90
14103;DHT22;7129;48.832;12.472;2022-07-11T12:27:07;21.50;99.90
14103;DHT22;7129;48.832;12.472;2022-07-11T12:32:12;21.50;99.40
14103;DHT22;7129;48.832;12.472;2022-07-11T12:37:17;21.60;98.90
14103;DHT22;7129;48.832;12.472;2022-07-11T12:42:24;21.50;99.30
14103;DHT22;7129;48.832;12.472;2022-07-11T12:47:43;21.60;99.60
14103;DHT22;7129;48.832;12.472;2022-07-11T12:52:50;21.80;98.80
14103;DHT22;7129;48.832;12.472;2022-07-11T12:58:06;22.10;99.70
14103;DHT22;7129;48.832;12.472;2022-07-11T13:03:09;22.00;98.20
14103;DHT22;7129;48.832;12.472;2022-07-11T13:08:51;21.90;98.90
14103;DHT22;7129;48.832;12.472;2022-07-11T13:13:53;21.90;99.00
14103;DHT22;7129;48.832;12.472;2022-07-11T13:19:09;22.00;99.80
14103;DHT22;7129;48.832;12.472;2022-07-11T13:24:13;22.20;99.70
14103;DHT22;7129;48.832;12.472;2022-07-11T13:29:17;22.40;99.00
14103;DHT22;7129;48.832;12.472;2022-07-11T13:34:18;22.60;99.80
14103;DHT22;7129;48.832;12.472;2022-07-11T13:39:22;22.70;99.30
14103;DHT22;7129;48.832;12.472;2022-07-11T13:44:23;22.60;99.00
14103;DHT22;7129;48.832;12.472;2022-07-11T13:49:26;22.50;99.60
14103;DHT22;7129;48.832;12.472;2022-07-11T13:54:43;22.30;98.20
14103;DHT22;7129;48.832;12.472;2022-07-11T13:59:52;22.30;99.00
14103;DHT22;7129;48.832;12.472;2022-07-11T14:04:54;22.30;99.50
14103;DHT22;7129;48.832;12.472;2022-07-11T14:10:01;22.50;99.40
14103;DHT22;7129;48.832;12.472;2022-07-11T14:15:04;22.50;99.20
14103;DHT22;7129;48.832;12.472;2022-07-11T14:20:09;22.70;97.80
14103;DHT22;7129;48.832;12.472;2022-07-11T14:25:13;22.70;98.30
14103;DHT22;7129;48.832;12.472;2022-07-11T14:30:17;22.80;97.50
14103;DHT22;7129;48.832;12.472;2022-07-11T14:35:22;22.70;98.40
14103;DHT22;7129;48.832;12.472;2022-07-11T14:40:25;23.00;99.00
14103;DHT22;7129;48.832;12.472;2022-07-11T14:45:27;23.10;98.90
14103;DHT22;7129;48.832;12.472;2022-07-11T14:50:29;23.20;98.50
14103;DHT22;7129;48.832;12.472;2022-07-11T14:55:41;23.10;97.30
14103;DHT22;7129;48.832;12.472;2022-07-11T15:01:18;22.80;97.70
14103;DHT22;7129;48.832;12.472;2022-07-11T15:06:59;22.60;97.50
14103;DHT22;7129;48.832;12.472;2022-07-11T15:12:20;22.30;98.20
14103;DHT22;7129;48.832;12.472;2022-07-11T15:17:24;22.10;98.60
14103;DHT22;7129;48.832;12.472;2022-07-11T15:22:26;22.00;98.70
14103;DHT22;7129;48.832;12.472;2022-07-11T15:27:30;21.90;98.90
14103;DHT22;7129;48.832;12.472;2022-07-11T15:32:32;21.80;98.60
14103;DHT22;7129;48.832;12.472;2022-07-11T15:37:35;22.00;99.50
14103;DHT22;7129;48.832;12.472;2022-07-11T15:42:39;22.30;99.50
14103;DHT22;7129;48.832;12.472;2022-07-11T15:47:41;22.40;98.10
14103;DHT22;7129;48.832;12.472;2022-07-11T15:52:45;22.30;97.50
14103;DHT22;7129;48.832;12.472;2022-07-11T15:57:48;22.40;97.80
14103;DHT22;7129;48.832;12.472;2022-07-11T16:08:44;22.50;98.60
14103;DHT22;7129;48.832;12.472;2022-07-11T16:13:48;22.60;97.40
14103;DHT22;7129;48.832;12.472;2022-07-11T16:18:51;22.60;97.50
14103;DHT22;7129;48.832;12.472;2022-07-11T16:23:55;22.80;97.30
14103;DHT22;7129;48.832;12.472;2022-07-11T16:29:12;22.90;97.20
14103;DHT22;7129;48.832;12.472;2022-07-11T16:34:14;22.90;96.90
14103;DHT22;7129;48.832;12.472;2022-07-11T16:39:16;22.70;95.80
14103;DHT22;7129;48.832;12.472;2022-07-11T16:44:38;22.50;96.10
14103;DHT22;7129;48.832;12.472;2022-07-11T16:55:37;22.10;96.70
14103;DHT22;7129;48.832;12.472;2022-07-11T17:00:40;22.00;97.90
14103;DHT22;7129;48.832;12.472;2022-07-11T17:05:43;22.10;97.80
14103;DHT22;7129;48.832;12.472;2022-07-11T17:10:45;22.00;97.50
14103;DHT22;7129;48.832;12.472;2022-07-11T17:16:12;22.00;97.60
14103;DHT22;7129;48.832;12.472;2022-07-11T17:21:17;21.90;97.90
14103;DHT22;7129;48.832;12.472;2022-07-11T17:26:19;21.70;98.90
14103;DHT22;7129;48.832;12.472;2022-07-11T17:41:57;21.40;99.40
14103;DHT22;7129;48.832;12.472;2022-07-11T17:46:59;21.30;99.40
14103;DHT22;7129;48.832;12.472;2022-07-11T17:57:32;21.20;99.10
14103;DHT22;7129;48.832;12.472;2022-07-11T18:02:34;21.10;99.50
14103;DHT22;7129;48.832;12.472;2022-07-11T18:12:48;21.00;99.90
14103;DHT22;7129;48.832;12.472;2022-07-11T18:17:50;21.00;99.40
14103;DHT22;7129;48.832;12.472;2022-07-11T18:22:52;21.00;99.30
14103;DHT22;7129;48.832;12.472;2022-07-11T18:27:55;21.00;98.80
14103;DHT22;7129;48.832;12.472;2022-07-11T18:32:57;20.90;98.90
14103;DHT22;7129;48.832;12.472;2022-07-11T18:37:59;20.70;98.60
14103;DHT22;7129;48.832;12.472;2022-07-11T18:43:02;20.80;98.80
14103;DHT22;7129;48.832;12.472;2022-07-11T18:48:05;20.70;98.90
14103;DHT22;7129;48.832;12.472;2022-07-11T18:53:07;20.60;99.60
14103;DHT22;7129;48.832;12.472;2022-07-11T18:58:10;20.50;99.90
14103;DHT22;7129;48.832;12.472;2022-07-11T19:03:12;20.30;99.90
14103;DHT22;7129;48.832;12.472;2022-07-11T19:08:14;20.20;99.90
14103;DHT22;7129;48.832;12.472;2022-07-11T19:24:58;19.90;99.20
14103;DHT22;7129;48.832;12.472;2022-07-11T19:30:00;19.80;99.10
14103;DHT22;7129;48.832;12.472;2022-07-11T19:35:02;19.80;99.20
14103;DHT22;7129;48.832;12.472;2022-07-11T19:40:13;19.60;99.30
14103;DHT22;7129;48.832;12.472;2022-07-11T19:45:15;19.60;99.40
14103;DHT22;7129;48.832;12.472;2022-07-11T19:50:18;19.40;99.80
14103;DHT22;7129;48.832;12.472;2022-07-11T19:55:45;19.30;99.80
14103;DHT22;7129;48.832;12.472;2022-07-11T20:06:52;19.10;99.60
14103;DHT22;7129;48.832;12.472;2022-07-11T20:23:41;18.80;99.90
14103;DHT22;7129;48.832;12.472;2022-07-11T20:29:08;18.70;99.90
14103;DHT22;7129;48.832;12.472;2022-07-11T20:51:57;18.20;99.90
14103;DHT22;7129;48.832;12.472;2022-07-11T20:57:25;18.10;99.90
14103;DHT22;7129;48.832;12.472;2022-07-11T21:02:41;18.00;99.90
14103;DHT22;7129;48.832;12.472;2022-07-11T23:30:11;15.50;99.90
14103;DHT22;7129;48.832;12.472;2022-07-11T23:35:55;15.70;99.90
14103;DHT22;7129;48.832;12.472;2022-07-11T23:41:38;16.00;99.90
14103;DHT22;7129;48.832;12.472;2022-07-11T23:52:49;16.20;99.90
